• Join FlightAware (Why Join?)
  • Login
  • US Flag 
05:31PM EDT


 

Airport Tracker/Info


-or-


 

Live Flight TrackerFlight Track Log ✈ USC105 ✈ 25-Jun-2013 ✈ KYIP - KLCK

Flight Track Log - Related Links

Times and Time Zones

All times are in EDT time to prevent confusion due to time zone crossing. See the USC105 flight status page for this flight to view local times or setup timezone preferences in your user account.

Time Position Orientation Groundspeed Altitude Reporting Facility
EDT Latitude Longitude Course Direction KTS MPH feet Rate Location/Type
07:09AM 42.1964 -83.5681 188° South 142 163 2,800  Level Cleveland Center
07:10AM 42.1606 -83.5750 188° South 117 135 3,700 960 Climbing Cleveland Center
07:11AM 42.1308 -83.5986 211° Southwest 119 137 4,800 540 Climbing Cleveland Center
07:12AM 42.0886 -83.6247 205° Southwest 162 186 4,900 240 Climbing Cleveland Center
07:14AM 42.0277 -83.6054 180° South  Level Estimated
07:20AM 41.7392 -83.5353 166° South 189 217 7,000  Level Indianapolis Center
07:21AM 41.6772 -83.4950 168° South  Level Estimated
07:21AM 41.6894 -83.5183 166° South 185 213 7,000  Level Indianapolis Center
07:22AM 41.6274 -83.4780 166° South  Level FlightAware Approximate
07:22AM 41.6289 -83.4986 166° South 187 215 7,000  Level Indianapolis Center
07:23AM 41.5775 -83.4611 166° South  Level FlightAware Approximate
07:23AM 41.5772 -83.4822 167° South 189 217 7,000  Level Indianapolis Center
07:24AM 41.5277 -83.4441 166° South  Level FlightAware Approximate
07:24AM 41.5269 -83.4658 166° South 185 213 7,000  Level Indianapolis Center
07:25AM 41.4778 -83.4272 166° South  Level FlightAware Approximate
07:25AM 41.4750 -83.4503 167° South 187 215 7,000  Level Indianapolis Center
07:26AM 41.4280 -83.4104 166° South  Level FlightAware Approximate
07:26AM 41.4247 -83.4336 166° South 186 214 7,000  Level Indianapolis Center
07:27AM 41.3722 -83.4167 166° South 190 219 7,000  Level Indianapolis Center
07:28AM 41.3211 -83.4017 168° South 187 215 7,000  Level Indianapolis Center
07:29AM 41.2692 -83.3844 166° South 190 219 7,000  Level Indianapolis Center
07:30AM 41.2186 -83.3686 167° South 186 214 7,000  Level Indianapolis Center
07:31AM 41.1678 -83.3522 166° South 186 214 7,000  Level Indianapolis Center
07:32AM 41.1167 -83.3364 167° South 187 215 7,000  Level Indianapolis Center
07:33AM 41.0653 -83.3194 166° South 188 216 7,000  Level Indianapolis Center
07:34AM 41.0139 -83.3042 167° South 188 216 7,000  Level Indianapolis Center
07:35AM 40.9619 -83.2864 166° South 190 219 7,000  Level Indianapolis Center
07:36AM 40.9094 -83.2706 167° South 191 220 7,000  Level Indianapolis Center
07:37AM 40.8506 -83.2511 166° South 188 216 7,000  Level Indianapolis Center
07:39AM 40.7975 -83.2344 167° South 193 222 7,000  Level Indianapolis Center
07:40AM 40.7494 -83.2214 168° South 189 217 7,000  Level Indianapolis Center
07:41AM 40.6969 -83.2025 165° South 192 221 7,000  Level Indianapolis Center
07:42AM 40.6453 -83.1869 167° South 191 220 7,000  Level Indianapolis Center
07:43AM 40.5928 -83.1714 167° South 190 219 7,000  Level Indianapolis Center
07:44AM 40.5383 -83.1531 166° South 190 219 7,000  Level Indianapolis Center
07:45AM 40.4897 -83.1381 167° South 189 217 7,000  Level Indianapolis Center
07:45AM 40.4419 -83.1278 171° South 189 217 7,000 -60 Level Indianapolis Center
07:46AM 40.4017 -83.1039 156° South 194 223 6,900 -360 Descending Indianapolis Center
07:47AM 40.3478 -83.0647 151° Southeast 207 238 6,400 -540 Descending Indianapolis Center
07:48AM 40.2981 -83.0286 151° Southeast 205 236 5,900 -240 Descending Indianapolis Center
07:49AM 40.2483 -82.9903 150° Southeast 192 221 5,900  Level Indianapolis Center
07:50AM 40.2047 -82.9550 148° Southeast 189 217 6,000  Climbing Indianapolis Center
07:51AM 40.1628 -82.9231 150° Southeast 188 216 6,000 -60 Level Indianapolis Center
07:52AM 40.1192 -82.8881 148° Southeast 184 212 5,900 -300 Descending Indianapolis Center
07:53AM 40.0708 -82.8581 155° Southeast 193 222 5,400 -540 Descending Indianapolis Center
07:54AM 40.0475 -82.8519 169° South 192 221 5,100 -600 Descending Indianapolis Center
07:54AM 40.0172 -82.8467 172° South 185 213 4,800 -600 Descending Indianapolis Center
07:55AM 39.9958 -82.8406 168° South 188 216 4,500 -660 Descending Indianapolis Center
07:56AM 39.9456 -82.8308 172° South 183 211 3,800 -840 Descending Indianapolis Center
07:57AM 39.8953 -82.8289 178° South 181 208 2,800 -900 Descending Indianapolis Center
07:58AM 39.8597 -82.8681 220° Southwest 173 199 2,000 -900 Descending Indianapolis Center
07:59AM 39.8303 -82.9072 226° Southwest 158 182 1,000 -1,020 Descending Indianapolis Center
08:01AM 39.8138 -82.9278 191° South  Level Estimated